Time,TemperatureF,DewpointF,PressureIn,WindDirection,WindDirectionDegrees,WindSpeedMPH,WindSpeedGustMPH,Humidity,HourlyPrecipIn,Conditions,Clouds,dailyrainin,SoftwareType,DateUTC
2016-12-05 00:00:00,41.4,36.6,29.95,NW,316,6.3,8.1,83,0.00,,---,0.00,VWS V15.00,2016-12-05 05:00:00,
2016-12-05 00:05:00,41.2,36.4,29.95,WSW,257,4.0,4.0,83,0.00,,---,0.00,VWS V15.00,2016-12-05 05:05:00,
2016-12-05 00:10:00,41.0,35.9,29.95,WNW,293,0.0,0.0,82,0.00,,---,0.00,VWS V15.00,2016-12-05 05:10:00,
2016-12-05 00:15:00,41.0,35.9,29.95,West,268,5.8,5.8,82,0.00,,---,0.00,VWS V15.00,2016-12-05 05:15:00,
2016-12-05 00:20:00,40.8,35.8,29.95,West,277,3.6,3.6,82,0.00,,---,0.00,VWS V15.00,2016-12-05 05:20:00,
2016-12-05 00:25:00,40.6,35.6,29.95,West,265,3.1,5.4,82,0.00,,---,0.00,VWS V15.00,2016-12-05 05:25:00,
2016-12-05 00:30:00,40.6,35.9,29.95,WSW,246,4.9,4.9,83,0.00,,---,0.00,VWS V15.00,2016-12-05 05:30:00,
2016-12-05 00:35:00,40.5,35.7,29.95,WSW,237,2.7,3.6,83,0.00,,---,0.00,VWS V15.00,2016-12-05 05:35:00,
2016-12-05 00:40:00,40.5,35.7,29.95,West,259,0.0,0.0,83,0.00,,---,0.00,VWS V15.00,2016-12-05 05:40:00,
2016-12-05 00:45:00,40.3,35.5,29.95,WNW,285,0.0,2.7,83,0.00,,---,0.00,VWS V15.00,2016-12-05 05:45:00,
2016-12-05 00:50:00,40.1,35.1,29.95,West,263,2.7,2.7,82,0.00,,---,0.00,VWS V15.00,2016-12-05 05:50:00,
2016-12-05 00:55:00,40.1,35.4,29.98,NW,323,3.6,4.0,83,0.00,,---,0.00,VWS V15.00,2016-12-05 05:55:00,
2016-12-05 01:00:00,39.9,35.2,29.98,WNW,303,0.0,2.7,83,0.00,,---,0.00,VWS V15.00,2016-12-05 06:00:00,
2016-12-05 01:05:00,39.9,35.2,29.98,WNW,297,3.1,3.1,83,0.00,,---,0.00,VWS V15.00,2016-12-05 06:05:00,
2016-12-05 01:10:00,39.7,35.0,29.98,WSW,239,5.4,5.4,83,0.00,,---,0.00,VWS V15.00,2016-12-05 06:10:00,
2016-12-05 01:15:00,39.7,35.0,29.98,NW,312,0.0,2.7,83,0.00,,---,0.00,VWS V15.00,2016-12-05 06:15:00,
2016-12-05 01:20:00,39.6,34.8,29.98,West,263,0.0,2.2,83,0.00,,---,0.00,VWS V15.00,2016-12-05 06:20:00,
2016-12-05 01:25:00,39.6,35.1,29.98,WNW,290,0.0,0.0,84,0.00,,---,0.00,VWS V15.00,2016-12-05 06:25:00,
2016-12-05 01:30:00,39.6,35.1,29.98,West,267,3.6,5.8,84,0.00,,---,0.00,VWS V15.00,2016-12-05 06:30:00,
2016-12-05 01:35:00,39.6,35.1,29.98,WSW,256,0.0,0.0,84,0.00,,---,0.00,VWS V15.00,2016-12-05 06:35:00,
2016-12-05 01:40:00,39.4,35.0,29.98,WNW,303,3.1,5.8,84,0.00,,---,0.00,VWS V15.00,2016-12-05 06:40:00,
2016-12-05 01:45:00,39.4,35.0,29.98,WSW,252,0.0,0.0,84,0.00,,---,0.00,VWS V15.00,2016-12-05 06:45:00,
2016-12-05 01:50:00,39.4,35.0,29.98,West,273,0.0,0.0,84,0.00,,---,0.00,VWS V15.00,2016-12-05 06:50:00,
2016-12-05 01:55:00,39.2,34.8,29.98,WSW,252,0.0,2.7,84,0.00,,---,0.00,VWS V15.00,2016-12-05 06:55:00,
2016-12-05 02:01:00,39.2,34.5,29.98,WNW,292,0.0,0.0,83,0.00,,---,0.00,VWS V15.00,2016-12-05 07:01:00,
2016-12-05 02:06:00,38.8,33.5,29.98,WSW,258,0.0,0.0,81,0.00,,---,0.04,VWS V15.00,2016-12-05 07:06:00,
2016-12-05 02:11:00,38.8,33.2,30.01,West,276,0.0,0.0,80,0.00,,---,0.00,VWS V15.00,2016-12-05 07:11:00,
2016-12-05 02:15:00,38.8,32.6,30.01,West,263,0.0,2.2,78,0.00,,---,0.00,VWS V15.00,2016-12-05 07:15:00,
2016-12-05 02:26:00,38.8,32.6,30.01,WSW,239,2.2,2.2,78,0.00,,---,0.00,VWS V15.00,2016-12-05 07:26:00,
2016-12-05 02:31:00,38.8,32.6,30.01,West,263,3.6,3.6,78,0.00,,---,0.00,VWS V15.00,2016-12-05 07:31:00,
2016-12-05 02:36:00,38.8,32.6,30.01,SW,226,2.7,3.1,78,0.00,,---,0.00,VWS V15.00,2016-12-05 07:36:00,
2016-12-05 02:41:00,38.8,32.9,30.01,SW,234,0.0,0.0,79,0.00,,---,0.00,VWS V15.00,2016-12-05 07:41:00,
2016-12-05 02:46:00,38.8,32.9,30.01,WNW,283,0.0,0.0,79,0.00,,---,0.00,VWS V15.00,2016-12-05 07:46:00,
2016-12-05 02:51:00,38.7,32.7,30.01,NNW,339,0.0,0.0,79,0.00,,---,0.00,VWS V15.00,2016-12-05 07:51:00,
2016-12-05 02:56:00,38.7,32.7,30.01,WNW,283,0.0,0.0,79,0.00,,---,0.00,VWS V15.00,2016-12-05 07:56:00,
2016-12-05 03:01:00,38.5,32.5,30.01,West,277,0.0,0.0,79,0.00,,---,0.00,VWS V15.00,2016-12-05 08:01:00,
2016-12-05 03:06:00,38.5,32.5,30.01,SW,232,0.0,0.0,79,0.00,,---,0.00,VWS V15.00,2016-12-05 08:06:00,
2016-12-05 03:11:00,38.3,32.4,30.01,NW,318,0.0,0.0,79,0.00,,---,0.00,VWS V15.00,2016-12-05 08:11:00,
2016-12-05 03:16:00,38.1,32.2,30.01,West,276,0.0,2.2,79,0.00,,---,0.00,VWS V15.00,2016-12-05 08:16:00,
2016-12-05 03:21:00,37.9,32.0,30.01,WNW,295,0.0,0.0,79,0.00,,---,0.00,VWS V15.00,2016-12-05 08:21:00,
2016-12-05 03:26:00,37.9,32.3,30.04,West,269,3.1,3.1,80,0.00,,---,0.00,VWS V15.00,2016-12-05 08:26:00,
2016-12-05 03:31:00,37.8,32.2,30.04,NNW,345,2.2,2.2,80,0.00,,---,0.00,VWS V15.00,2016-12-05 08:31:00,
2016-12-05 03:36:00,37.4,31.5,30.04,NNW,333,0.0,0.0,79,0.00,,---,0.00,VWS V15.00,2016-12-05 08:36:00,
2016-12-05 03:41:00,37.4,31.5,30.04,NW,315,0.0,0.0,79,0.00,,---,0.00,VWS V15.00,2016-12-05 08:41:00,
2016-12-05 03:46:00,37.0,31.1,30.04,NNW,329,0.0,0.0,79,0.00,,---,0.00,VWS V15.00,2016-12-05 08:46:00,
2016-12-05 03:51:00,37.0,31.1,30.04,WSW,250,0.0,0.0,79,0.00,,---,0.00,VWS V15.00,2016-12-05 08:51:00,
2016-12-05 03:56:00,37.0,31.1,30.04,WNW,284,0.0,0.0,79,0.00,,---,0.00,VWS V15.00,2016-12-05 08:56:00,
2016-12-05 04:01:00,36.9,31.0,30.04,NW,312,0.0,0.0,79,0.00,,---,0.00,VWS V15.00,2016-12-05 09:01:00,
2016-12-05 04:06:00,36.9,31.0,30.04,North,353,0.0,0.0,79,0.00,,---,0.00,VWS V15.00,2016-12-05 09:06:00,
2016-12-05 04:11:00,36.7,30.8,30.04,NW,322,3.1,3.6,79,0.00,,---,0.00,VWS V15.00,2016-12-05 09:11:00,
2016-12-05 04:16:00,36.7,30.8,30.04,WNW,293,3.1,3.6,79,0.00,,---,0.00,VWS V15.00,2016-12-05 09:16:00,
2016-12-05 04:21:00,36.7,30.8,30.04,NW,317,0.0,0.0,79,0.00,,---,0.00,VWS V15.00,2016-12-05 09:21:00,
2016-12-05 04:26:00,36.7,30.8,30.04,NW,316,2.7,3.1,79,0.00,,---,0.00,VWS V15.00,2016-12-05 09:26:00,
2016-12-05 04:31:00,36.7,30.8,30.04,WSW,256,0.0,3.1,79,0.00,,---,0.00,VWS V15.00,2016-12-05 09:31:00,
2016-12-05 04:36:00,36.5,30.6,30.04,SW,225,2.7,3.6,79,0.00,,---,0.00,VWS V15.00,2016-12-05 09:36:00,
2016-12-05 04:41:00,36.5,30.6,30.04,WNW,283,2.7,3.6,79,0.00,,---,0.00,VWS V15.00,2016-12-05 09:41:00,
2016-12-05 04:46:00,36.5,30.6,30.04,WSW,257,0.0,0.0,79,0.00,,---,0.00,VWS V15.00,2016-12-05 09:46:00,
2016-12-05 04:51:00,36.5,30.6,30.04,WSW,248,0.0,0.0,79,0.00,,---,0.00,VWS V15.00,2016-12-05 09:51:00,
2016-12-05 04:56:00,36.5,30.6,30.04,West,266,0.0,0.0,79,0.00,,---,0.00,VWS V15.00,2016-12-05 09:56:00,
2016-12-05 05:01:00,36.5,30.6,30.04,West,271,2.7,2.7,79,0.00,,---,0.00,VWS V15.00,2016-12-05 10:01:00,
2016-12-05 05:06:00,36.3,30.4,30.04,NW,306,0.0,0.0,79,0.00,,---,0.00,VWS V15.00,2016-12-05 10:06:00,
2016-12-05 05:11:00,36.3,30.4,30.04,NW,306,0.0,0.0,79,0.00,,---,0.00,VWS V15.00,2016-12-05 10:11:00,
2016-12-05 05:21:00,36.3,30.4,30.04,NW,306,0.0,0.0,79,0.00,,---,0.00,VWS V15.00,2016-12-05 10:21:00,
2016-12-05 05:26:00,36.3,30.4,30.04,NW,306,0.0,0.0,79,0.00,,---,0.00,VWS V15.00,2016-12-05 10:26:00,
2016-12-05 05:31:00,36.3,30.4,30.04,NW,316,0.0,0.0,79,0.00,,---,0.00,VWS V15.00,2016-12-05 10:31:00,
2016-12-05 05:36:00,36.3,30.4,30.04,NW,304,0.0,0.0,79,0.00,,---,0.00,VWS V15.00,2016-12-05 10:36:00,
2016-12-05 05:41:00,36.3,30.4,30.04,West,272,3.1,3.1,79,0.00,,---,0.00,VWS V15.00,2016-12-05 10:41:00,
2016-12-05 05:46:00,36.3,30.4,30.04,West,272,0.0,0.0,79,0.00,,---,0.00,VWS V15.00,2016-12-05 10:46:00,
2016-12-05 05:51:00,36.1,30.3,30.04,West,280,0.0,0.0,79,0.00,,---,0.00,VWS V15.00,2016-12-05 10:51:00,
2016-12-05 05:56:00,36.1,30.3,30.07,West,280,0.0,0.0,79,0.00,,---,0.00,VWS V15.00,2016-12-05 10:56:00,